Greenwood, Virginia
Current Conditions -  °F | °C
As of 1:35 AM on Thursday 23 Oct 2014 (Local Time) from KW13 Reporting Station
Clear Clear  
Wind Chill: 40°   Ceiling: Unl
Heat Index: 45°   Visibility: 10mi
Dew Point: 38°   Wind: 9mph
Humidity: 77%   Direction: 290°WNW
Pressure: 30.01"   Gusts: NA
Location:  38.05°N, 78.77°W
Report Text: KW13 230535Z AUTO 29008KT 10SM CLR 07/04 A3001 RMK AO1 T00720035
Loading
Personal Weather Stations






























Interactive Weather Map
Tropical Storm Tracking
New forecast layout! Learn more

10-Day Weather Forecast

Advertisements
Track Severe Weather on mobile